Lantana, FL

7:25 AM EST on November 28, 2014 (GMT -0500)
Island Estates | Change Station
CLOSE
Current Station
Personal Weather Station
Location: Lantana, FL
Elevation: 45 ft
Nearby Weather Stations

Elev 45 ft 26.57 °N, 80.08 °W | Updated 7 seconds ago

Clear
Clear
51.8 °F
Feels Like 51.8 °F
N
5.0
Wind Variable Wind from NNW
Gusts 5.0 mph

Today
High -- | Low -- °F
--% Chance of Precip.
Yesterday
High -- | Low -- °F
Precip. -- in
6:49 AM 5:27 PM
Waxing Crescent, 40% visible
Pressure 30.20 in
Visibility 10.0 miles
Clouds Few 3000 ft
Few 25000 ft
Dew Point 46 °F
Humidity 79%
Rainfall 0.00 in
Snow Depth Not available.
UV 0 out of 12
Pollen 4.60 out of 12
Air Quality Not available.
Flu Activity Not available.
METAR KPBI 281153Z 32011KT 10SM FEW030 FEW250 10/06 A3020 RMK AO2 SLP226 T01000061 10139 20100 53010

More Conditions Fewer Conditions

Pressure 30.20 in
Visibility 10.0 miles
Clouds Few 3000 ft
Few 25000 ft
Dew Point 46 °F
Humidity 79%
Rainfall 0.00 in
Snow Depth Not available.
UV 0 out of 12
Pollen 4.60 out of 12
Air Quality Not available.
Flu Activity Not available.
METAR KPBI 281153Z 32011KT 10SM FEW030 FEW250 10/06 A3020 RMK AO2 SLP226 T01000061 10139 20100 53010

More Conditions Fewer Conditions

10-Day Weather Forecast

Almanac

Astronomy

Nov. 28, 2014 Rise Set
Actual Time
Civil Twilight
Nautical Twilight
Astronomical Twilight
Moon
Length of Visible Light
Length of Day
Tomorrow will be .
, % of the Moon is Illuminated

Today's Extremes

State Highs State Lows

Community

WunderPhotos

Upload Photos

1,774,199 photos uploaded!

WunderBlogs® & News

Nearby

Air Quality

  Air Quality AQ Index Pollutant
Not available.

Snow Depth

Station Depth Elevation

Earthquake Activity

City Distance Mag. Time & Date
Minimum magnitude displayed is 2.5.

Coastal Water Temperatures

Place Temperature

Nearby Weather Stations